createdAt,value
2018-09-12T04:41:36.900Z,1014.13
2018-09-12T04:42:36.947Z,1014.12
2018-09-12T04:43:36.870Z,1014.11
2018-09-12T04:44:36.854Z,1014.07
2018-09-12T04:45:36.837Z,1014.05
2018-09-12T04:46:36.824Z,1014.07
2018-09-12T04:47:36.809Z,1014.11
2018-09-12T04:48:36.833Z,1014.11
2018-09-12T04:49:36.770Z,1014.11
2018-09-12T04:50:36.752Z,1014.08
2018-09-12T04:51:36.736Z,1014.08
2018-09-12T04:52:36.721Z,1014.06
2018-09-12T04:53:36.701Z,1014.05
2018-09-12T04:54:36.687Z,1014.05
2018-09-12T04:55:36.672Z,1014.00
2018-09-12T04:56:36.655Z,1014.01
2018-09-12T04:57:36.639Z,1014.01
2018-09-12T04:58:36.620Z,1014.04
2018-09-12T04:59:36.639Z,1014.00
2018-09-12T05:00:36.588Z,1013.99
2018-09-12T05:01:36.570Z,1013.97
2018-09-12T05:02:36.557Z,1014.02
2018-09-12T05:03:36.543Z,1014.02
2018-09-12T05:04:36.526Z,1014.01
2018-09-12T05:05:36.504Z,1013.98
2018-09-12T05:06:36.488Z,1013.96
2018-09-12T05:07:36.472Z,1013.99
2018-09-12T05:08:36.455Z,1013.98
2018-09-12T05:09:36.437Z,1013.94
2018-09-12T05:10:36.421Z,1013.98
2018-09-12T05:11:36.405Z,1013.99
2018-09-12T05:12:36.391Z,1013.99
2018-09-12T05:13:36.373Z,1014.00
2018-09-12T05:14:36.366Z,1014.00
2018-09-12T05:15:36.340Z,1014.05
2018-09-12T05:16:36.354Z,1014.02
2018-09-12T05:17:36.311Z,1014.05
2018-09-12T05:18:36.289Z,1014.03
2018-09-12T05:19:36.274Z,1014.04
2018-09-12T05:20:36.255Z,1014.05
2018-09-12T05:21:36.242Z,1014.04
2018-09-12T05:22:36.227Z,1014.05
2018-09-12T05:23:36.209Z,1014.05
2018-09-12T05:24:36.196Z,1014.02
2018-09-12T05:25:36.177Z,1014.04
2018-09-12T05:26:36.160Z,1014.02
2018-09-12T05:27:36.144Z,1014.00
2018-09-12T05:28:36.257Z,1014.00
2018-09-12T05:29:36.111Z,1014.04
2018-09-12T05:30:36.106Z,1014.04
2018-09-12T05:31:36.077Z,1014.00
2018-09-12T05:32:36.062Z,1014.02
2018-09-12T05:33:36.047Z,1014.05
2018-09-12T05:34:36.037Z,1014.09
2018-09-12T05:35:36.012Z,1014.14
2018-09-12T05:36:35.998Z,1014.15
2018-09-12T05:37:35.980Z,1014.14
2018-09-12T05:38:35.975Z,1014.13
2018-09-12T05:39:35.951Z,1014.11
2018-09-12T05:40:35.928Z,1014.10
2018-09-12T05:41:35.914Z,1014.11
2018-09-12T05:42:35.898Z,1014.13
2018-09-12T05:43:35.883Z,1014.15
2018-09-12T05:44:35.865Z,1014.14
2018-09-12T05:45:35.848Z,1014.13
2018-09-12T05:46:35.833Z,1014.16
2018-09-12T05:47:35.830Z,1014.15
2018-09-12T05:48:35.801Z,1014.14
2018-09-12T05:49:35.784Z,1014.15
2018-09-12T05:50:35.768Z,1014.18
2018-09-12T05:51:35.750Z,1014.17
2018-09-12T05:52:35.737Z,1014.18
2018-09-12T05:53:35.721Z,1014.12
2018-09-12T05:54:35.703Z,1014.17
2018-09-12T05:55:35.686Z,1014.18
2018-09-12T05:56:35.675Z,1014.19
2018-09-12T05:57:35.656Z,1014.16
2018-09-12T05:58:35.651Z,1014.16
2018-09-12T05:59:35.634Z,1014.15
2018-09-12T06:00:35.608Z,1014.15
2018-09-12T06:01:35.592Z,1014.16
2018-09-12T06:02:35.576Z,1014.18
2018-09-12T06:03:35.560Z,1014.21
2018-09-12T06:04:35.542Z,1014.16
2018-09-12T06:05:35.530Z,1014.17
2018-09-12T06:06:35.674Z,1014.12
2018-09-12T06:07:35.494Z,1014.14
2018-09-12T06:08:35.479Z,1014.19
2018-09-12T06:09:35.465Z,1014.14
2018-09-12T06:10:35.448Z,1014.12
2018-09-12T06:11:35.433Z,1014.10
2018-09-12T06:12:35.416Z,1014.09
2018-09-12T06:13:35.401Z,1014.11
2018-09-12T06:14:35.385Z,1014.11
2018-09-12T06:15:35.369Z,1014.11
2018-09-12T06:16:35.353Z,1014.11
2018-09-12T06:17:35.342Z,1014.08
2018-09-12T06:18:35.323Z,1014.10
2018-09-12T06:19:35.310Z,1014.06
2018-09-12T06:20:35.289Z,1014.11
2018-09-12T06:21:35.277Z,1014.13
2018-09-12T06:22:35.265Z,1014.16
2018-09-12T06:23:35.243Z,1014.17
2018-09-12T06:24:35.234Z,1014.14
2018-09-12T06:25:35.214Z,1014.15
2018-09-12T06:26:35.197Z,1014.18
2018-09-12T06:27:35.184Z,1014.18
2018-09-12T06:28:35.167Z,1014.14
2018-09-12T06:29:35.152Z,1014.17
2018-09-12T06:30:35.189Z,1014.15
2018-09-12T06:31:35.123Z,1014.14
2018-09-12T06:32:35.104Z,1014.12
2018-09-12T06:33:35.102Z,1014.17
2018-09-12T06:34:35.078Z,1014.15
2018-09-12T06:35:35.059Z,1014.18
2018-09-12T06:36:35.046Z,1014.18
2018-09-12T06:37:35.030Z,1014.20
2018-09-12T06:38:35.017Z,1014.20
2018-09-12T06:39:35.004Z,1014.18
2018-09-12T06:40:34.992Z,1014.23
2018-09-12T06:41:34.968Z,1014.28
2018-09-12T06:42:34.954Z,1014.27
2018-09-12T06:43:34.940Z,1014.26
2018-09-12T06:44:34.985Z,1014.29
2018-09-12T06:45:34.913Z,1014.26
2018-09-12T06:46:34.895Z,1014.26
2018-09-12T06:47:34.880Z,1014.22
2018-09-12T06:48:34.870Z,1014.22
2018-09-12T06:49:34.850Z,1014.21
2018-09-12T06:50:34.836Z,1014.24
2018-09-12T06:51:34.823Z,1014.28
2018-09-12T06:52:34.811Z,1014.25
2018-09-12T06:53:34.792Z,1014.27
2018-09-12T06:54:34.814Z,1014.28
2018-09-12T06:55:34.768Z,1014.33
2018-09-12T06:56:34.750Z,1014.29
2018-09-12T06:57:34.734Z,1014.48
2018-09-12T06:58:34.722Z,1014.74
2018-09-12T06:59:34.708Z,1014.44
2018-09-12T07:00:34.718Z,1014.24
2018-09-12T07:01:34.678Z,1014.27
2018-09-12T07:02:34.666Z,1014.28
2018-09-12T07:03:34.653Z,1014.30
2018-09-12T07:04:34.638Z,1014.48
2018-09-12T07:05:34.624Z,1014.77
2018-09-12T07:06:34.611Z,1014.61
2018-09-12T07:07:34.602Z,1014.65
2018-09-12T07:08:34.583Z,1014.81
2018-09-12T07:09:34.572Z,1014.76
2018-09-12T07:10:34.558Z,1014.88
2018-09-12T07:11:34.543Z,1014.97
2018-09-12T07:12:34.532Z,1015.06
2018-09-12T07:13:34.520Z,1015.05
2018-09-12T07:14:34.508Z,1015.08
2018-09-12T07:15:34.496Z,1015.14
2018-09-12T07:16:34.484Z,1015.18
2018-09-12T07:17:34.473Z,1015.27
2018-09-12T07:18:34.462Z,1015.32
2018-09-12T07:19:34.508Z,1015.36
2018-09-12T07:20:34.440Z,1015.45
2018-09-12T07:21:34.428Z,1015.45
2018-09-12T07:22:34.417Z,1015.45
2018-09-12T07:23:34.407Z,1015.50
2018-09-12T07:24:34.491Z,1015.56
2018-09-12T07:25:34.387Z,1015.63
2018-09-12T07:26:34.377Z,1015.81
2018-09-12T07:27:34.418Z,1015.89
2018-09-12T07:28:34.358Z,1016.14
2018-09-12T07:29:34.353Z,1016.36
2018-09-12T07:30:34.387Z,1016.61
2018-09-12T07:31:34.334Z,1017.02
2018-09-12T07:32:34.322Z,1017.35
2018-09-12T07:33:34.313Z,1017.80
2018-09-12T07:34:34.306Z,1018.51
2018-09-12T07:35:34.298Z,1019.03
2018-09-12T07:36:34.293Z,1019.77
2018-09-12T07:37:34.284Z,1020.29
2018-09-12T07:38:34.284Z,1021.07
2018-09-12T07:39:34.272Z,1022.34
2018-09-12T07:40:34.268Z,1023.19
2018-09-12T07:41:34.270Z,1024.27
2018-09-12T07:42:34.260Z,1024.76
2018-09-12T07:43:34.242Z,1025.07
2018-09-12T07:44:34.236Z,1025.26
2018-09-12T07:45:34.232Z,1025.76
2018-09-12T07:46:34.226Z,1026.15
2018-09-12T07:47:34.218Z,1026.32
2018-09-12T07:48:34.221Z,1027.18
2018-09-12T07:49:34.205Z,1028.25
2018-09-12T07:50:34.201Z,1029.59
2018-09-12T07:51:34.196Z,1030.23
2018-09-12T07:52:34.188Z,1030.22
2018-09-12T07:53:34.183Z,1030.54
2018-09-12T07:54:34.179Z,1030.71
2018-09-12T07:55:34.191Z,1030.80
2018-09-12T07:56:34.173Z,1031.25
2018-09-12T07:57:34.162Z,1032.22
2018-09-12T07:58:34.158Z,1032.82
2018-09-12T07:59:34.153Z,1033.39
2018-09-12T08:00:34.219Z,1033.31
2018-09-12T08:01:34.143Z,1032.52
2018-09-12T08:02:34.139Z,1032.70
2018-09-12T08:03:34.136Z,1033.72
2018-09-12T08:04:34.128Z,1036.06
2018-09-12T08:05:34.128Z,1037.48
2018-09-12T08:06:34.119Z,1036.28
2018-09-12T08:07:34.115Z,1034.03
2018-09-12T08:08:34.110Z,1033.69
2018-09-12T08:09:34.106Z,1034.35
2018-09-12T08:10:34.103Z,1036.13
2018-09-12T08:11:34.100Z,1036.85
2018-09-12T08:12:34.093Z,1036.67
2018-09-12T08:13:34.091Z,1036.81
2018-09-12T08:14:34.087Z,1038.18
2018-09-12T08:15:34.085Z,1039.64
2018-09-12T08:16:34.078Z,1040.39
2018-09-12T08:17:34.080Z,1039.13
2018-09-12T08:18:34.071Z,1039.10
2018-09-12T08:19:34.068Z,1038.65
2018-09-12T08:20:34.061Z,1038.19
2018-09-12T08:21:34.061Z,1036.43
2018-09-12T08:22:34.055Z,1037.80
2018-09-12T08:23:34.056Z,1039.07
2018-09-12T08:24:34.048Z,1039.42
2018-09-12T08:25:34.053Z,1038.09
2018-09-12T08:26:34.084Z,1035.41
2018-09-12T08:27:34.040Z,1035.35
2018-09-12T08:28:34.037Z,1035.22
2018-09-12T08:29:34.040Z,1025.56
2018-09-12T08:30:34.030Z,1020.96
2018-09-12T08:31:34.032Z,1020.18
2018-09-12T08:32:34.023Z,1017.52
2018-09-12T08:33:34.019Z,1017.69
2018-09-12T08:34:34.023Z,1018.33
2018-09-12T08:35:34.017Z,1018.87
2018-09-12T08:36:34.091Z,1020.23
2018-09-12T08:37:34.012Z,1019.90
2018-09-12T08:38:34.007Z,1023.03
2018-09-12T08:39:34.005Z,1028.31
2018-09-12T08:40:34.004Z,1023.44
2018-09-12T08:41:33.994Z,1029.96
2018-09-12T08:42:34.052Z,1032.12
2018-09-12T08:43:33.988Z,1032.75
2018-09-12T08:44:33.985Z,1027.62
2018-09-12T08:45:33.983Z,1022.92
2018-09-12T08:46:33.981Z,1027.83
2018-09-12T08:47:33.980Z,1022.95
2018-09-12T08:48:33.978Z,1017.46
2018-09-12T08:49:33.970Z,1016.63
2018-09-12T08:50:33.972Z,1016.72
2018-09-12T08:51:33.967Z,1016.93
2018-09-12T08:52:33.962Z,1015.98
2018-09-12T08:53:33.957Z,1016.08
2018-09-12T08:54:33.956Z,1016.32
2018-09-12T08:55:33.954Z,1015.41
2018-09-12T08:56:33.959Z,1015.35
2018-09-12T08:57:33.948Z,1015.32
2018-09-12T08:58:33.943Z,1015.31
2018-09-12T08:59:33.938Z,1015.36
2018-09-12T09:00:33.936Z,1015.61
2018-09-12T09:01:33.969Z,1015.44
2018-09-12T09:02:33.932Z,1015.40
2018-09-12T09:03:33.926Z,1015.44
2018-09-12T09:04:33.921Z,1015.51
2018-09-12T09:05:33.920Z,1015.59
2018-09-12T09:06:33.913Z,1015.58
2018-09-12T09:07:33.909Z,1016.18
2018-09-12T09:08:33.913Z,1015.79
2018-09-12T09:09:33.905Z,1015.70
2018-09-12T09:10:33.971Z,1016.02
2018-09-12T09:11:33.893Z,1015.69
2018-09-12T09:12:33.889Z,1015.65
2018-09-12T09:13:33.895Z,1015.75
2018-09-12T09:14:33.880Z,1017.15
2018-09-12T09:15:33.876Z,1015.62
2018-09-12T09:16:33.870Z,1015.36
2018-09-12T09:17:33.867Z,1015.55
2018-09-12T09:18:33.862Z,1015.60
2018-09-12T09:19:33.857Z,1015.55
2018-09-12T09:20:33.852Z,1015.56
2018-09-12T09:21:33.849Z,1015.64
2018-09-12T09:22:33.843Z,1015.66
2018-09-12T09:23:33.860Z,1015.88
2018-09-12T09:24:33.837Z,1015.71
2018-09-12T09:25:33.835Z,1015.90
2018-09-12T09:26:33.827Z,1015.77
2018-09-12T09:27:33.823Z,1016.03
2018-09-12T09:28:33.817Z,1015.99
2018-09-12T09:29:33.818Z,1016.27
2018-09-12T09:30:33.811Z,1016.18
2018-09-12T09:31:33.804Z,1015.59
2018-09-12T09:32:33.836Z,1016.09
2018-09-12T09:33:33.795Z,1015.50
2018-09-12T09:34:33.792Z,1015.46
2018-09-12T09:35:33.934Z,1015.49
2018-09-12T09:36:33.782Z,1015.57
2018-09-12T09:37:33.779Z,1016.44
2018-09-12T09:38:33.776Z,1016.02
2018-09-12T09:39:33.774Z,1016.31
2018-09-12T09:40:33.763Z,1016.29
2018-09-12T09:41:33.761Z,1015.68
2018-09-12T09:42:33.759Z,1015.48
2018-09-12T09:43:33.756Z,1015.21
2018-09-12T09:44:33.752Z,1015.42
2018-09-12T09:45:33.748Z,1015.70
2018-09-12T09:46:33.744Z,1015.48
2018-09-12T09:47:33.741Z,1015.47
2018-09-12T09:48:33.736Z,1015.92
2018-09-12T09:49:33.734Z,1015.66
2018-09-12T09:50:33.729Z,1015.47
2018-09-12T09:51:33.726Z,1015.49
2018-09-12T09:52:33.725Z,1015.42
2018-09-12T09:53:33.717Z,1015.33
2018-09-12T09:54:33.737Z,1015.40
2018-09-12T09:55:33.711Z,1015.42
2018-09-12T09:56:33.707Z,1015.43
2018-09-12T09:57:33.701Z,1015.33
2018-09-12T09:58:33.699Z,1015.30
2018-09-12T09:59:33.699Z,1015.23
2018-09-12T10:00:33.696Z,1015.20
2018-09-12T10:01:33.689Z,1015.24
2018-09-12T10:02:33.683Z,1015.29
2018-09-12T10:03:33.681Z,1015.23
2018-09-12T10:04:33.677Z,1014.98
2018-09-12T10:05:33.672Z,1014.99
2018-09-12T10:06:33.666Z,1015.02
2018-09-12T10:07:33.662Z,1014.97
2018-09-12T10:08:33.658Z,1015.02
2018-09-12T10:09:33.653Z,1015.03
2018-09-12T10:10:33.651Z,1015.03
2018-09-12T10:11:33.650Z,1015.23
2018-09-12T10:12:33.643Z,1015.33
2018-09-12T10:13:33.639Z,1015.50
2018-09-12T10:14:33.632Z,1015.39
2018-09-12T10:15:33.626Z,1015.33
2018-09-12T10:16:33.621Z,1015.31
2018-09-12T10:17:33.615Z,1015.28
2018-09-12T10:18:33.619Z,1015.19
2018-09-12T10:19:33.606Z,1015.08
2018-09-12T10:20:33.603Z,1015.11
2018-09-12T10:21:33.595Z,1015.42
2018-09-12T10:22:33.590Z,1015.40
2018-09-12T10:23:33.621Z,1015.50
2018-09-12T10:24:33.582Z,1015.77
2018-09-12T10:25:33.578Z,1015.77
2018-09-12T10:26:33.570Z,1015.63
2018-09-12T10:27:33.570Z,1015.29
2018-09-12T10:28:33.560Z,1015.27
2018-09-12T10:29:33.559Z,1015.13
2018-09-12T10:30:33.553Z,1015.03
2018-09-12T10:31:33.548Z,1015.13
2018-09-12T10:32:33.544Z,1015.28
2018-09-12T10:33:33.535Z,1016.06
2018-09-12T10:34:33.531Z,1016.62
2018-09-12T10:35:33.526Z,1016.89
2018-09-12T10:36:33.524Z,1015.49
2018-09-12T10:37:33.517Z,1015.62
2018-09-12T10:38:33.518Z,1016.79
2018-09-12T10:39:33.510Z,1015.94
2018-09-12T10:40:33.505Z,1015.34
2018-09-12T10:41:33.498Z,1015.29
2018-09-12T10:42:33.496Z,1015.28
2018-09-12T10:43:33.491Z,1015.08
2018-09-12T10:44:33.489Z,1015.48
2018-09-12T10:45:33.481Z,1014.88
2018-09-12T10:46:33.477Z,1015.00
2018-09-12T10:47:33.474Z,1015.05
2018-09-12T10:48:33.469Z,1015.11
2018-09-12T10:49:33.465Z,1016.97
2018-09-12T10:50:33.461Z,1015.10
2018-09-12T10:51:33.458Z,1016.01
2018-09-12T10:52:33.452Z,1015.40
2018-09-12T10:53:33.451Z,1015.00
2018-09-12T10:54:33.446Z,1015.22
2018-09-12T10:55:33.440Z,1015.13
2018-09-12T10:56:33.440Z,1015.10
2018-09-12T10:57:33.433Z,1015.19
2018-09-12T10:58:33.428Z,1015.58
2018-09-12T10:59:33.422Z,1015.08
2018-09-12T11:00:33.420Z,1014.92
2018-09-12T11:01:33.418Z,1014.92
2018-09-12T11:02:33.416Z,1014.87
2018-09-12T11:03:33.406Z,1016.65
2018-09-12T11:04:33.404Z,1015.33
2018-09-12T11:05:33.397Z,1015.04
2018-09-12T11:06:33.395Z,1016.62
2018-09-12T11:07:33.398Z,1014.86
2018-09-12T11:08:33.386Z,1014.79
2018-09-12T11:09:33.382Z,1015.51
2018-09-12T11:10:33.381Z,1015.51
2018-09-12T11:11:33.375Z,1014.79
2018-09-12T11:12:33.379Z,1015.03
2018-09-12T11:13:33.373Z,1015.53
2018-09-12T11:14:33.362Z,1016.52
2018-09-12T11:15:33.357Z,1015.66
2018-09-12T11:16:33.358Z,1016.48
2018-09-12T11:17:33.350Z,1015.26
2018-09-12T11:18:33.344Z,1014.63
2018-09-12T11:19:33.343Z,1014.57
2018-09-12T11:20:33.340Z,1014.67
2018-09-12T11:21:33.334Z,1016.01
2018-09-12T11:22:33.331Z,1016.10
2018-09-12T11:23:33.326Z,1016.07
2018-09-12T11:24:33.322Z,1014.65
2018-09-12T11:25:33.317Z,1014.63
2018-09-12T11:26:33.312Z,1014.49
2018-09-12T11:27:33.309Z,1014.53
2018-09-12T11:28:33.309Z,1014.59
2018-09-12T11:29:33.303Z,1014.61
2018-09-12T11:30:33.298Z,1015.19
2018-09-12T11:31:33.294Z,1015.86
2018-09-12T11:32:33.288Z,1015.84
2018-09-12T11:33:33.288Z,1015.84
2018-09-12T11:34:33.284Z,1015.73
2018-09-12T11:35:33.278Z,1015.76
2018-09-12T11:36:33.274Z,1015.60
2018-09-12T11:37:33.277Z,1015.62
2018-09-12T11:38:33.264Z,1014.79
2018-09-12T11:39:33.265Z,1014.62
2018-09-12T11:40:33.271Z,1014.50
2018-09-12T11:41:33.265Z,1014.56
2018-09-12T11:42:33.257Z,1015.46
2018-09-12T11:43:33.259Z,1014.45
2018-09-12T11:44:33.246Z,1014.41
2018-09-12T11:45:33.251Z,1014.78
2018-09-12T11:46:33.238Z,1015.36
2018-09-12T11:47:33.240Z,1015.42
2018-09-12T11:48:33.237Z,1015.45
2018-09-12T11:49:33.228Z,1014.47
2018-09-12T11:50:33.226Z,1014.36
2018-09-12T11:51:33.225Z,1015.30
2018-09-12T11:52:33.219Z,1014.32
2018-09-12T11:53:33.216Z,1015.21
2018-09-12T11:54:33.214Z,1014.47
2018-09-12T11:55:33.222Z,1014.41
2018-09-12T11:56:33.207Z,1014.34
2018-09-12T11:57:33.202Z,1014.36
2018-09-12T11:58:33.205Z,1014.40
2018-09-12T11:59:33.196Z,1014.42
2018-09-12T12:00:33.194Z,1015.24
2018-09-12T12:01:33.189Z,1015.31
2018-09-12T12:02:33.188Z,1014.24
2018-09-12T12:03:33.182Z,1014.28
2018-09-12T12:04:33.174Z,1014.33
2018-09-12T12:05:33.174Z,1015.19
2018-09-12T12:06:33.170Z,1014.28
2018-09-12T12:07:33.166Z,1014.51
2018-09-12T12:08:33.167Z,1015.09
2018-09-12T12:09:33.157Z,1015.03
2018-09-12T12:10:33.161Z,1015.09
2018-09-12T12:11:33.151Z,1015.02
2018-09-12T12:12:33.148Z,1014.16
2018-09-12T12:13:33.144Z,1015.02
2018-09-12T12:14:33.145Z,1014.88
2018-09-12T12:15:33.136Z,1014.20
2018-09-12T12:16:33.192Z,1014.15
2018-09-12T12:17:33.132Z,1014.17
2018-09-12T12:18:33.127Z,1014.22
2018-09-12T12:19:33.125Z,1014.74
2018-09-12T12:20:33.122Z,1014.14
2018-09-12T12:21:33.119Z,1014.18
2018-09-12T12:22:33.116Z,1014.79
2018-09-12T12:23:33.162Z,1014.85
2018-09-12T12:24:33.107Z,1014.79
2018-09-12T12:25:33.106Z,1014.71
2018-09-12T12:26:33.100Z,1014.72
2018-09-12T12:27:33.097Z,1014.52
2018-09-12T12:28:33.094Z,1014.35
2018-09-12T12:29:33.094Z,1014.59
2018-09-12T12:30:33.091Z,1014.49
2018-09-12T12:31:33.085Z,1014.44
2018-09-12T12:32:33.079Z,1014.39
2018-09-12T12:33:33.078Z,1014.23
2018-09-12T12:34:33.073Z,1014.21
2018-09-12T12:35:33.192Z,1014.24
2018-09-12T12:36:33.068Z,1014.28
2018-09-12T12:37:33.063Z,1014.39
2018-09-12T12:38:33.065Z,1014.29
2018-09-12T12:39:33.056Z,1014.31
2018-09-12T12:40:33.053Z,1014.15
2018-09-12T12:41:33.048Z,1014.02
2018-09-12T12:42:33.058Z,1013.98
2018-09-12T12:43:33.062Z,1014.00
2018-09-12T12:44:33.044Z,1014.14
2018-09-12T12:45:33.035Z,1014.02
2018-09-12T12:46:33.031Z,1014.10
2018-09-12T12:47:33.039Z,1014.12
2018-09-12T12:48:33.037Z,1014.10
2018-09-12T12:49:33.020Z,1014.03
2018-09-12T12:50:33.018Z,1014.22
2018-09-12T12:51:33.018Z,1014.02
2018-09-12T12:52:33.008Z,1014.03
2018-09-12T12:53:32.999Z,1014.04
2018-09-12T12:54:32.995Z,1013.93
2018-09-12T12:55:32.993Z,1013.90
2018-09-12T12:56:32.985Z,1013.94
2018-09-12T12:57:32.987Z,1013.87
2018-09-12T12:58:32.976Z,1013.81
2018-09-12T12:59:32.972Z,1013.81
2018-09-12T13:00:32.967Z,1013.85
2018-09-12T13:01:32.962Z,1013.75
2018-09-12T13:02:32.959Z,1013.81
2018-09-12T13:03:32.953Z,1013.75
2018-09-12T13:04:32.947Z,1013.78
2018-09-12T13:05:33.008Z,1013.81
2018-09-12T13:06:32.943Z,1013.84
2018-09-12T13:07:32.932Z,1013.85
2018-09-12T13:08:32.927Z,1013.68
2018-09-12T13:09:32.926Z,1013.67
2018-09-12T13:10:32.919Z,1013.65
2018-09-12T13:11:32.912Z,1013.59
2018-09-12T13:12:32.907Z,1013.64
2018-09-12T13:13:32.906Z,1013.67
2018-09-12T13:14:32.913Z,1013.69
2018-09-12T13:15:32.891Z,1013.67
2018-09-12T13:16:32.885Z,1013.65
2018-09-12T13:17:32.881Z,1013.70
2018-09-12T13:18:32.875Z,1013.76
2018-09-12T13:19:32.869Z,1013.76
2018-09-12T13:20:32.879Z,1013.63
2018-09-12T13:21:32.942Z,1013.67
2018-09-12T13:22:32.854Z,1013.63
2018-09-12T13:23:32.846Z,1013.67
2018-09-12T13:24:32.841Z,1013.75
2018-09-12T13:25:32.835Z,1013.69
2018-09-12T13:26:32.850Z,1013.70
2018-09-12T13:27:32.833Z,1013.71
2018-09-12T13:28:32.815Z,1013.65
2018-09-12T13:29:32.813Z,1013.65
2018-09-12T13:30:32.806Z,1013.68
2018-09-12T13:31:32.799Z,1013.58
2018-09-12T13:32:32.793Z,1013.55
2018-09-12T13:33:32.788Z,1013.56
2018-09-12T13:34:32.815Z,1013.60
2018-09-12T13:35:32.776Z,1013.56
2018-09-12T13:36:32.768Z,1013.52
2018-09-12T13:37:32.763Z,1013.59
2018-09-12T13:38:32.756Z,1013.65
2018-09-12T13:39:32.756Z,1013.72
2018-09-12T13:40:32.743Z,1013.74
2018-09-12T13:41:32.739Z,1013.61
2018-09-12T13:42:32.730Z,1013.60
2018-09-12T13:43:32.726Z,1013.66
2018-09-12T13:44:32.780Z,1013.59
2018-09-12T13:45:32.733Z,1013.74
2018-09-12T13:46:32.705Z,1013.76
2018-09-12T13:47:32.707Z,1013.80
2018-09-12T13:48:32.695Z,1013.83
2018-09-12T13:49:32.686Z,1013.79
2018-09-12T13:50:32.680Z,1013.83
2018-09-12T13:51:32.674Z,1013.91
2018-09-12T13:52:32.667Z,1013.98
2018-09-12T13:53:32.662Z,1013.90
2018-09-12T13:54:32.657Z,1013.86
2018-09-12T13:55:32.651Z,1013.84
2018-09-12T13:56:32.647Z,1013.86
2018-09-12T13:57:32.637Z,1013.80
2018-09-12T13:58:32.629Z,1013.81
2018-09-12T13:59:32.619Z,1013.81
2018-09-12T14:00:32.616Z,1013.72
2018-09-12T14:01:32.609Z,1013.78
2018-09-12T14:02:32.602Z,1013.75
2018-09-12T14:03:32.597Z,1013.78
2018-09-12T14:04:32.596Z,1013.79
2018-09-12T14:05:32.583Z,1013.77
2018-09-12T14:06:32.573Z,1013.77
2018-09-12T14:07:32.567Z,1013.77
2018-09-12T14:08:32.563Z,1013.75
2018-09-12T14:09:32.554Z,1013.74
2018-09-12T14:10:32.548Z,1013.82
2018-09-12T14:11:32.544Z,1013.89
2018-09-12T14:12:32.612Z,1013.79
2018-09-12T14:13:32.532Z,1013.81
2018-09-12T14:14:32.524Z,1013.81
2018-09-12T14:15:32.516Z,1013.81
2018-09-12T14:16:32.506Z,1013.81
2018-09-12T14:17:32.506Z,1013.80
2018-09-12T14:18:32.494Z,1013.78
2018-09-12T14:19:32.549Z,1013.79
2018-09-12T14:20:32.488Z,1013.80
2018-09-12T14:21:32.477Z,1013.77
2018-09-12T14:22:32.467Z,1013.83
2018-09-12T14:23:32.459Z,1013.84
2018-09-12T14:24:32.454Z,1013.82
2018-09-12T14:25:32.448Z,1013.78
2018-09-12T14:26:32.440Z,1013.82
2018-09-12T14:27:32.433Z,1013.79
2018-09-12T14:28:32.424Z,1013.79
2018-09-12T14:29:32.420Z,1013.77
2018-09-12T14:30:32.411Z,1013.76
2018-09-12T14:31:32.404Z,1013.71
2018-09-12T14:32:32.398Z,1013.70
2018-09-12T14:33:32.388Z,1013.72
2018-09-12T14:34:32.386Z,1013.79
2018-09-12T14:35:32.378Z,1013.77
2018-09-12T14:36:32.367Z,1013.71
2018-09-12T14:37:32.362Z,1013.74
2018-09-12T14:38:32.356Z,1013.75
2018-09-12T14:39:32.416Z,1013.79
2018-09-12T14:40:32.339Z,1013.79
2018-09-12T14:41:32.333Z,1013.80
2018-09-12T14:42:32.330Z,1013.79
2018-09-12T14:43:32.324Z,1013.77
2018-09-12T14:44:32.314Z,1013.83
2018-09-12T14:45:32.309Z,1013.82
2018-09-12T14:46:32.297Z,1013.87
2018-09-12T14:47:32.293Z,1013.81
2018-09-12T14:48:32.282Z,1013.83
2018-09-12T14:49:32.280Z,1013.85
2018-09-12T14:50:32.270Z,1013.87
2018-09-12T14:51:32.265Z,1013.85
2018-09-12T14:52:32.253Z,1013.85
2018-09-12T14:53:32.249Z,1013.82
2018-09-12T14:54:32.241Z,1013.84
2018-09-12T14:55:32.235Z,1013.81
2018-09-12T14:56:32.226Z,1013.82
2018-09-12T14:57:32.294Z,1013.83
2018-09-12T14:58:32.212Z,1013.86
2018-09-12T14:59:32.206Z,1013.84
2018-09-12T15:00:32.198Z,1013.85
2018-09-12T15:01:32.189Z,1013.94
2018-09-12T15:02:32.188Z,1013.91
2018-09-12T15:03:32.177Z,1013.91
2018-09-12T15:04:32.181Z,1013.98
2018-09-12T15:05:32.164Z,1013.99
2018-09-12T15:06:32.154Z,1014.04
2018-09-12T15:07:32.155Z,1014.08
2018-09-12T15:08:32.140Z,1014.05
2018-09-12T15:09:32.131Z,1014.03
2018-09-12T15:10:32.179Z,1014.03
2018-09-12T15:11:32.120Z,1014.03
2018-09-12T15:12:32.112Z,1014.02
2018-09-12T15:13:32.102Z,1013.99
2018-09-12T15:14:32.096Z,1014.01
2018-09-12T15:15:32.089Z,1013.98
2018-09-12T15:16:32.130Z,1014.01
2018-09-12T15:17:32.071Z,1014.01
2018-09-12T15:18:32.066Z,1014.00
2018-09-12T15:19:32.057Z,1013.96
2018-09-12T15:20:32.051Z,1013.94
2018-09-12T15:21:32.046Z,1013.95
2018-09-12T15:22:32.040Z,1013.94
2018-09-12T15:23:32.026Z,1013.99
2018-09-12T15:24:32.019Z,1014.01
2018-09-12T15:25:32.010Z,1014.04
2018-09-12T15:26:32.005Z,1014.03
2018-09-12T15:27:31.997Z,1013.98
2018-09-12T15:28:31.987Z,1014.00
2018-09-12T15:29:31.979Z,1014.06
2018-09-12T15:30:31.971Z,1014.03
2018-09-12T15:31:31.975Z,1013.99
2018-09-12T15:32:32.018Z,1014.07
2018-09-12T15:33:31.948Z,1014.04
2018-09-12T15:34:31.939Z,1014.04
2018-09-12T15:35:32.030Z,1014.03
2018-09-12T15:36:31.928Z,1014.06
2018-09-12T15:37:31.921Z,1014.04
2018-09-12T15:38:32.007Z,1014.05
2018-09-12T15:39:32.020Z,1014.05
2018-09-12T15:40:32.356Z,1014.01
2018-09-12T15:41:32.097Z,1014.06
2018-09-12T15:46:31.841Z,1014.16
2018-09-12T15:47:31.926Z,1014.23
2018-09-12T15:48:32.034Z,1014.22
2018-09-12T15:51:14.338Z,1014.23
2018-09-12T15:52:14.329Z,1014.29
2018-09-12T15:53:14.326Z,1014.24
2018-09-12T15:54:14.313Z,1014.28
2018-09-12T15:55:14.307Z,1014.25
2018-09-12T15:56:14.304Z,1014.21
2018-09-12T15:57:14.288Z,1014.22
2018-09-12T15:58:14.347Z,1014.23
2018-09-12T15:59:14.270Z,1014.20
2018-09-12T16:00:14.267Z,1014.21
2018-09-12T16:01:14.254Z,1014.24
2018-09-12T16:02:14.242Z,1014.27
2018-09-12T16:03:14.236Z,1014.33
2018-09-12T16:04:14.226Z,1014.32
2018-09-12T16:05:14.216Z,1014.33
2018-09-12T16:06:14.213Z,1014.32
2018-09-12T16:07:14.197Z,1014.32
2018-09-12T16:08:14.190Z,1014.35
2018-09-12T16:09:14.180Z,1014.33
2018-09-12T16:10:14.171Z,1014.36
2018-09-12T16:11:14.161Z,1014.36
2018-09-12T16:12:14.151Z,1014.34
2018-09-12T16:13:14.145Z,1014.42
2018-09-12T16:14:14.135Z,1014.37
2018-09-12T16:15:14.176Z,1014.41
2018-09-12T16:16:14.116Z,1014.38
2018-09-12T16:17:14.107Z,1014.43
2018-09-12T16:18:14.101Z,1014.39
2018-09-12T16:19:14.085Z,1014.41
2018-09-12T16:20:14.079Z,1014.43
2018-09-12T16:21:14.072Z,1014.44
2018-09-12T16:22:14.063Z,1014.47
2018-09-12T16:23:14.069Z,1014.46
2018-09-12T16:24:14.037Z,1014.47
2018-09-12T16:25:14.033Z,1014.48
2018-09-12T16:26:14.022Z,1014.51
2018-09-12T16:27:14.012Z,1014.47
2018-09-12T16:28:14.012Z,1014.49
2018-09-12T16:29:13.993Z,1014.52
2018-09-12T16:30:13.983Z,1014.51
2018-09-12T16:31:13.973Z,1014.50
2018-09-12T16:32:13.962Z,1014.48
2018-09-12T16:33:13.951Z,1014.56
2018-09-12T16:34:13.941Z,1014.55
2018-09-12T16:35:13.932Z,1014.55
2018-09-12T16:36:13.919Z,1014.59
2018-09-12T16:37:13.913Z,1014.63
2018-09-12T16:38:13.907Z,1014.61
2018-09-12T16:39:13.893Z,1014.67
2018-09-12T16:40:13.901Z,1014.67
2018-09-12T16:41:13.868Z,1014.66
2018-09-12T16:42:13.859Z,1014.71
2018-09-12T16:43:13.855Z,1014.73
2018-09-12T16:44:13.843Z,1014.77
2018-09-12T16:45:13.840Z,1014.80
2018-09-12T16:46:13.821Z,1014.79
2018-09-12T16:47:13.808Z,1014.83
2018-09-12T16:48:13.800Z,1014.82
2018-09-12T16:49:13.787Z,1014.84
2018-09-12T16:50:13.776Z,1014.87
2018-09-12T16:51:13.773Z,1014.85
2018-09-12T16:52:13.757Z,1014.87